Latest Weather Observations for Perisher Valley

IDN60901

Issued at 1:01 pm EST Monday 26 August 2019 (issued every 10 minutes, with the page automatically refreshed every 10 minutes)

About weather observations | Map of Canberra area stations | Latest observations for Canberra area | Other Formats
Station Details ID: 071075 Name: PERISHER VALLEY AWS Lat: -36.41 Lon: 148.41 Height: 1738.0 m
Data from the previous 72 hours. | See also: Recent months at Perisher Valley
Date/Time
EST
Temp
°C
App
Temp
°C
Dew
Point
°C
Rel
Hum
%
Delta-T
°C
Wind Press
QNH
hPa
Press
MSL
hPa
Rain since
9am
mm
Dir  Spd
km/h
Gust
km/h
Spd
kts
Gust
kts
26/01:00pm 2.7 -1.7 -5.4 55 3.1 SSW 9 17 5 9 - - 0.0
26/12:30pm 4.1 0.9 -7.3 43 4.0 WNW 2 6 1 3 - - 0.0
26/12:00pm 4.5 1.7 -6.7 44 4.0 CALM 0 2 0 1 - - 0.0
26/11:30am 2.9 -0.3 -7.6 46 3.8 W 2 4 1 2 - - 0.0
26/11:00am 2.0 -1.6 -7.8 48 3.4 WSW 4 7 2 4 - - 0.0
26/10:30am 3.3 0.5 -6.6 48 3.7 CALM 0 4 0 2 - - 0.0
26/10:00am 1.3 -2.2 -6.5 56 2.8 NE 4 7 2 4 - - 0.0
26/09:30am 1.8 -1.2 -4.9 61 2.6 ENE 2 6 1 3 - - 0.0
26/09:00am -1.2 -3.8 -4.5 78 1.1 CALM 0 2 0 1 - - 0.0
26/08:30am -3.4 -6.0 -5.2 87 0.5 CALM 0 0 0 0 - - 0.0
26/08:00am -4.3 -6.9 -5.1 94 0.1 CALM 0 2 0 1 - - 0.0
26/07:30am -4.5 -7.1 -5.2 95 0.0 CALM 0 2 0 1 - - 0.0
26/07:00am -4.2 -7.9 -4.9 95 0.1 ENE 6 9 3 5 - - 0.0
26/06:30am -3.1 -5.6 -4.4 91 0.3 CALM 0 0 0 0 - - 0.0
26/06:00am -3.1 -5.6 -4.1 93 0.2 CALM 0 4 0 2 - - 0.0
26/05:30am -3.2 -5.7 -4.2 93 0.2 CALM 0 0 0 0 - - 0.0
26/05:00am -3.0 -5.5 -3.7 95 0.1 CALM 0 2 0 1 - - 0.0
26/04:30am -3.0 -5.4 -3.5 96 0.0 CALM 0 2 0 1 - - 0.0
26/04:00am -3.0 -5.8 -3.4 97 0.0 NNE 2 6 1 3 - - 0.0
26/03:30am -2.9 -5.7 -3.3 97 0.0 ESE 2 4 1 2 - - 0.0
26/03:00am -2.6 -5.7 -3.0 97 0.0 NE 4 9 2 5 - - 0.0
26/02:30am -2.3 -5.8 -2.6 98 0.0 NE 6 7 3 4 - - 0.0
26/02:00am -2.3 -5.0 -2.4 99 -0.1 NE 2 4 1 2 - - 0.0
26/01:30am -2.4 -5.5 -2.5 99 -0.1 N 4 7 2 4 - - 0.0
26/01:00am -2.3 -5.7 -2.4 99 -0.1 NNE 6 9 3 5 - - 0.0
26/12:30am -2.2 -5.6 -2.3 99 -0.1 NE 6 9 3 5 - - 0.0
26/12:00am -2.2 -5.3 -2.5 98 0.0 NE 4 7 2 4 - - 0.0
 
Date/Time
EST
Temp
°C
App
Temp
°C
Dew
Point
°C
Rel
Hum
%
Delta-T
°C
Wind Press
QNH
hPa
Press
MSL
hPa
Rain since
9am
mm
Dir  Spd
km/h
Gust
km/h
Spd
kts
Gust
kts
25/11:30pm -2.0 -5.0 -2.1 99 -0.1 NNE 4 7 2 4 - - 0.0
25/11:00pm -2.1 -5.7 -2.2 99 -0.1 NE 7 9 4 5 - - 0.0
25/10:30pm -2.2 -5.3 -2.5 98 0.0 NE 4 6 2 3 - - 0.0
25/10:00pm -2.2 -4.9 -2.5 98 0.0 SW 2 6 1 3 - - 0.0
25/09:30pm -2.0 -5.1 -2.4 97 0.1 ESE 4 7 2 4 - - 0.0
25/09:00pm -1.9 -5.0 -2.3 97 0.1 NE 4 7 2 4 - - 0.0
25/08:30pm -1.7 -5.7 -2.4 95 0.2 ENE 9 13 5 7 - - 0.0
25/08:00pm -1.1 -4.2 -2.5 90 0.5 NNE 4 6 2 3 - - 0.0
25/07:30pm -0.7 -4.3 -2.4 88 0.6 NNE 7 11 4 6 - - 0.0
25/07:00pm -0.7 -3.5 -2.9 85 0.8 NE 2 7 1 4 - - 0.0
25/06:30pm -1.7 -4.7 -4.7 80 1.0 NW 2 6 1 3 - - 0.0
25/06:00pm -0.5 -2.9 -3.5 80 1.1 CALM 0 4 0 2 - - 0.0
25/05:30pm 0.0 -2.8 -3.7 76 1.4 NW 2 6 1 3 - - 0.0
25/05:00pm 1.1 -2.2 -4.3 67 2.1 W 4 9 2 5 - - 0.0
25/04:30pm 2.3 -1.4 -4.2 62 2.6 W 6 9 3 5 - - 0.0
25/04:00pm 1.6 -1.8 -4.9 62 2.5 W 4 7 2 4 - - 0.0
25/03:30pm 2.4 -1.0 -5.0 58 2.9 WSW 4 7 2 4 - - 0.0
25/03:00pm 2.0 -1.3 -4.7 61 2.6 WSW 4 7 2 4 - - 0.0
25/02:30pm 2.9 -0.9 -5.7 53 3.3 WSW 6 11 3 6 - - 0.0
25/02:00pm 4.0 0.1 -4.9 52 3.3 SW 7 13 4 7 - - 0.0
25/01:30pm 4.1 0.7 -5.6 49 3.6 SW 4 11 2 6 - - 0.0
25/01:00pm 3.5 -0.5 -7.3 45 4.0 SW 6 9 3 5 - - 0.0
25/12:30pm 3.5 -0.5 -7.6 44 4.1 WSW 6 11 3 6 - - 0.0
25/12:00pm 3.6 0.1 -6.6 47 3.8 WSW 4 9 2 5 - - 0.0
25/11:30am 3.3 -0.3 -6.9 47 3.8 W 4 9 2 5 - - 0.0
25/11:00am 2.4 -1.8 -7.7 47 3.6 W 7 13 4 7 - - 0.0
25/10:30am 2.6 -1.0 -7.3 48 3.6 WNW 4 9 2 5 - - 0.0
25/10:00am 1.7 -1.9 -7.1 52 3.1 WSW 4 11 2 6 - - 0.0
25/09:30am 1.5 -1.9 -5.2 61 2.5 WSW 4 11 2 6 - - 0.0
25/09:00am 0.8 -3.9 -4.8 66 2.1 W 11 19 6 10 - - 0.2
25/08:30am 0.7 -3.6 -4.7 67 2.0 W 9 17 5 9 - - 0.2
25/08:00am 0.8 -2.6 -5.0 65 2.1 SW 4 9 2 5 - - 0.2
25/07:30am 0.4 -4.0 -5.8 63 2.2 WSW 9 28 5 15 - - 0.2
25/07:00am 0.3 -4.9 -6.1 62 2.3 WNW 13 35 7 19 - - 0.2
25/06:30am 0.4 -7.9 -4.6 69 1.8 WNW 30 50 16 27 - - 0.2
25/06:25am 0.5 -7.9 -5.7 63 2.2 WNW 30 50 16 27 - - 0.2
25/06:00am 0.5 -5.8 -4.3 70 1.8 WNW 20 35 11 19 - - 0.2
25/05:30am 0.7 -5.6 -3.8 72 1.7 WNW 20 39 11 21 - - 0.2
25/05:00am 0.7 -4.6 -3.6 73 1.6 WNW 15 30 8 16 - - 0.2
25/04:30am 1.3 -4.8 -3.9 68 2.0 WNW 19 33 10 18 - - 0.0
25/04:00am 1.7 -4.5 -4.4 64 2.4 W 19 43 10 23 - - 0.0
25/03:30am 2.0 -3.4 -4.7 61 2.6 W 15 32 8 17 - - 0.0
25/03:00am 2.0 -3.1 -5.4 58 2.8 W 13 28 7 15 - - 0.0
25/02:30am 2.3 -3.2 -5.8 55 3.0 W 15 39 8 21 - - 0.0
25/02:00am 2.1 -2.7 -5.7 56 2.9 W 11 24 6 13 - - 0.0
25/01:30am 2.0 -3.5 -5.8 56 2.9 W 15 32 8 17 - - 0.0
25/01:00am 2.0 -4.3 -5.6 57 2.8 W 19 35 10 19 - - 0.0
25/12:30am 2.0 -3.9 -5.8 56 2.9 W 17 35 9 19 - - 0.0
25/12:00am 1.7 -4.5 -5.2 60 2.6 W 19 41 10 22 - - 0.0
 
Date/Time
EST
Temp
°C
App
Temp
°C
Dew
Point
°C
Rel
Hum
%
Delta-T
°C
Wind Press
QNH
hPa
Press
MSL
hPa
Rain since
9am
mm
Dir  Spd
km/h
Gust
km/h
Spd
kts
Gust
kts
24/11:30pm 1.9 -5.3 -5.0 60 2.6 W 24 41 13 22 - - 0.0
24/11:00pm 1.8 -4.5 -4.3 64 2.4 W 20 43 11 23 - - 0.0
24/10:30pm 1.7 -5.8 -4.2 65 2.3 W 26 43 14 23 - - 0.0
24/10:02pm 1.8 -6.0 -3.7 67 2.2 W 28 52 15 28 - - 0.0
24/10:00pm 1.8 -5.6 -3.7 67 2.2 W 26 50 14 27 - - 0.0
24/09:34pm 1.8 -5.9 -3.3 69 2.0 W 28 46 15 25 - - 0.0
24/09:30pm 1.8 -5.9 -2.9 71 1.9 W 28 44 15 24 - - 0.0
24/09:00pm 1.6 -6.0 -2.2 76 1.5 W 28 46 15 25 - - 0.0
24/08:59pm 1.6 -6.0 -2.0 77 1.4 W 28 46 15 25 - - 0.0
24/08:30pm 1.5 -4.0 -1.9 78 1.3 W 17 41 9 22 - - 0.0
24/08:00pm 1.5 -4.8 -1.2 82 1.1 W 22 48 12 26 - - 0.0
24/07:30pm 1.5 -5.3 -1.6 80 1.2 W 24 46 13 25 - - 0.0
24/07:20pm 1.5 -6.0 -1.4 81 1.2 W 28 54 15 29 - - 0.0
24/07:00pm 1.3 -5.1 -1.4 82 1.1 W 22 43 12 23 - - 0.0
24/06:30pm 1.2 -4.3 -1.9 80 1.3 W 17 44 9 24 - - 0.0
24/06:00pm 1.4 -5.0 -1.8 79 1.3 W 22 41 12 22 - - 0.0
24/05:30pm 1.7 -4.2 -2.1 76 1.5 W 19 33 10 18 - - 0.0
24/05:00pm 1.9 -3.2 -2.2 74 1.6 W 15 41 8 22 - - 0.0
24/04:30pm 2.3 -3.8 -2.2 72 1.8 W 20 41 11 22 - - 0.0
24/04:00pm 2.8 -2.7 -1.9 71 1.9 W 17 39 9 21 - - 0.0
24/03:30pm 3.0 -2.9 -2.1 69 2.0 W 19 39 10 21 - - 0.0
24/03:00pm 3.2 -1.5 -1.9 69 2.0 W 13 30 7 16 - - 0.0
24/02:30pm 2.7 -2.8 -2.4 69 2.0 W 17 39 9 21 - - 0.0
24/02:00pm 2.6 -4.0 -3.3 65 2.3 W 22 44 12 24 - - 0.0
24/01:30pm 2.6 -4.0 -3.7 63 2.4 W 22 46 12 25 - - 0.0
24/01:01pm 2.3 -5.5 -3.8 64 2.4 W 28 52 15 28 - - 0.0
24/01:00pm 2.3 -5.1 -3.8 64 2.4 W 26 52 14 28 - - 0.0
24/12:30pm 2.3 -4.7 -3.6 65 2.2 W 24 52 13 28 - - 0.0
24/12:00pm 2.1 -4.9 -3.6 66 2.3 W 24 48 13 26 - - 0.0
24/11:41am 2.0 -5.7 -3.1 69 2.0 W 28 52 15 28 - - 0.0
24/11:30am 2.1 -4.9 -3.2 68 2.0 W 24 43 13 23 - - 0.0
24/11:00am 1.8 -6.0 -3.9 66 2.2 W 28 52 15 28 - - 0.0
24/10:59am 1.8 -6.0 -3.9 66 2.2 W 28 52 15 28 - - 0.0
24/10:30am 1.9 -4.8 -4.4 63 2.4 W 22 41 12 22 - - 0.0
24/10:00am 1.5 -5.6 -4.8 63 2.4 W 24 43 13 23 - - 0.0
24/09:30am 1.0 -6.5 -5.0 64 2.2 W 26 43 14 23 - - 0.0
24/09:00am 0.8 -8.5 -5.2 64 2.2 W 35 48 19 26 - - 0.0
24/08:30am 0.3 -8.1 -5.7 64 2.1 W 30 54 16 29 - - 0.0
24/08:15am 0.1 -8.3 -5.7 65 2.1 W 30 50 16 27 - - 0.0
24/08:00am -0.1 -8.1 -6.1 64 2.1 W 28 46 15 25 - - 0.0
24/07:47am -0.2 -8.3 -6.4 63 2.1 W 28 48 15 26 - - 0.0
24/07:30am -0.3 -7.2 -10.2 47 3.1 W 20 35 11 19 - - 0.0
24/07:00am 0.1 -7.0 -14.2 33 4.0 W 20 37 11 20 - - 0.0
24/06:30am 0.2 -6.9 -17.0 26 4.5 W 19 32 10 17 - - 0.0
24/06:00am 1.4 -5.6 -25.8 11 5.9 W 17 26 9 14 - - 0.0
24/05:30am 2.1 -5.5 -28.7 8 6.4 W 20 35 11 19 - - 0.0
24/05:00am 2.5 -5.1 -28.4 8 6.5 W 20 32 11 17 - - 0.0
24/04:30am 2.8 -4.6 -28.2 8 6.6 W 19 33 10 18 - - 0.0
24/04:00am 3.9 -4.9 -32.3 5 7.2 W 26 37 14 20 - - 0.0
24/03:30am 4.0 -5.2 -32.2 5 7.3 W 28 43 15 23 - - 0.0
24/03:00am 2.9 -3.4 -29.5 7 6.7 W 13 26 7 14 - - 0.0
24/02:30am 1.6 -3.9 -25.6 11 6.0 WSW 9 15 5 8 - - 0.0
24/02:00am 3.1 -2.8 -29.3 7 6.8 W 11 22 6 12 - - 0.0
24/01:30am 3.9 -3.2 -32.3 5 7.2 W 17 24 9 13 - - 0.0
24/01:00am 4.4 -3.1 -31.9 5 7.4 W 19 30 10 16 - - 0.0
24/12:30am 4.9 -3.5 -29.6 6 7.5 W 24 37 13 20 - - 0.0
24/12:00am 5.1 -4.5 -33.7 4 7.8 W 30 44 16 24 - - 0.0
 
Date/Time
EST
Temp
°C
App
Temp
°C
Dew
Point
°C
Rel
Hum
%
Delta-T
°C
Wind Press
QNH
hPa
Press
MSL
hPa
Rain since
9am
mm
Dir  Spd
km/h
Gust
km/h
Spd
kts
Gust
kts
23/11:30pm 4.6 -4.6 -31.7 5 7.5 W 28 43 15 23 - - 0.0
23/11:00pm 5.2 -4.4 -31.3 5 7.7 W 30 46 16 25 - - 0.0
23/10:43pm 5.5 -3.7 -33.4 4 7.9 W 28 46 15 25 - - 0.0
23/10:30pm 5.6 -3.2 -31.0 5 7.9 W 26 43 14 23 - - 0.0
23/10:00pm 5.7 -2.7 -29.0 6 7.8 W 24 39 13 21 - - 0.0
23/09:30pm 5.3 -3.5 -33.5 4 7.8 W 26 37 14 20 - - 0.0
23/09:00pm 6.1 -1.9 -27.1 7 7.9 W 22 37 12 20 - - 0.0
23/08:30pm 5.5 -2.0 -24.8 9 7.5 W 20 35 11 19 - - 0.0
23/08:00pm 5.4 -1.8 -20.8 13 7.1 WSW 19 32 10 17 - - 0.0
23/07:30pm 5.8 -2.8 -21.4 12 7.3 W 26 41 14 22 - - 0.0
23/07:00pm 6.5 -2.1 -20.8 12 7.6 W 26 41 14 22 - - 0.0
23/06:30pm 6.2 0.6 -18.5 15 7.2 WSW 11 28 6 15 - - 0.0
23/06:00pm 6.0 -1.2 -19.4 14 7.2 W 19 32 10 17 - - 0.0
23/05:30pm 5.3 -2.0 -22.7 11 7.2 W 19 32 10 17 - - 0.0
23/05:00pm 5.3 -1.6 -21.8 12 7.1 W 17 28 9 15 - - 0.0
23/04:30pm 5.7 -1.8 -24.7 9 7.5 W 20 32 11 17 - - 0.0
23/04:00pm 5.4 -2.2 -16.3 19 6.6 W 22 32 12 17 - - 0.0
23/03:30pm 4.3 -3.4 -10.5 33 5.1 W 24 35 13 19 - - 0.0
23/03:00pm 5.0 -2.3 -10.3 32 5.4 W 22 35 12 19 - - 0.0
23/02:30pm 5.6 -0.4 -11.0 29 5.4 W 15 28 8 15 - - 0.0
23/02:00pm 6.2 -0.3 -12.8 24 6.0 WSW 17 30 9 16 - - 0.0
23/01:30pm 6.6 0.7 -16.7 17 7.1 W 13 30 7 16 - - 0.0

Latest Capital City Observations: Canberra | Sydney | Melbourne | Brisbane | Adelaide | Perth | Hobart | Darwin

Other formats

Comma delimited format used in spreadsheet applications
http://www.bom.gov.au/fwo/IDN60903/IDN60903.94915.axf

JavaScript Object Notation format (JSON) in row-major order
http://www.bom.gov.au/fwo/IDN60903/IDN60903.94915.json

Data quality

Most of these data are generated automatically and are frequently updated. Quality checks on data are not normally performed. It is possible for incorrect values to appear. Refer to information at About Latest Weather Observations and please check the disclaimer before using these data.